createdAt,value
2022-11-16T00:01:29.940Z,12.50
2022-11-16T00:03:59.808Z,12.60
2022-11-16T00:06:28.012Z,12.50
2022-11-16T00:09:16.400Z,12.60
2022-11-16T00:11:43.150Z,12.60
2022-11-16T00:14:10.217Z,12.50
2022-11-16T00:16:37.188Z,12.30
2022-11-16T00:19:05.774Z,12.20
2022-11-16T00:21:32.945Z,12.00
2022-11-16T00:23:59.723Z,12.00
2022-11-16T00:26:26.964Z,12.10
2022-11-16T00:28:54.576Z,12.20
2022-11-16T00:31:21.609Z,12.40
2022-11-16T00:33:49.238Z,12.30
2022-11-16T00:36:16.474Z,12.20
2022-11-16T00:38:43.615Z,12.40
2022-11-16T00:41:10.395Z,12.20
2022-11-16T00:43:37.545Z,12.20
2022-11-16T00:46:04.733Z,12.30
2022-11-16T00:48:32.073Z,12.20
2022-11-16T00:50:59.133Z,12.10
2022-11-16T00:53:25.876Z,12.10
2022-11-16T00:55:52.621Z,12.00
2022-11-16T00:58:19.399Z,11.90
2022-11-16T01:00:46.145Z,12.00
2022-11-16T01:03:12.918Z,11.90
2022-11-16T01:05:39.899Z,11.90
2022-11-16T01:08:07.756Z,11.90
2022-11-16T01:10:35.071Z,11.70
2022-11-16T01:13:01.808Z,11.70
2022-11-16T01:15:28.778Z,11.70
2022-11-16T01:17:57.061Z,11.60
2022-11-16T01:20:29.143Z,11.60
2022-11-16T01:22:56.359Z,11.50
2022-11-16T01:25:23.209Z,11.60
2022-11-16T01:27:49.980Z,11.50
2022-11-16T01:30:17.005Z,11.40
2022-11-16T01:32:44.165Z,11.40
2022-11-16T01:35:16.212Z,11.30
2022-11-16T01:37:43.094Z,11.40
2022-11-16T01:40:11.460Z,11.30
2022-11-16T01:42:38.511Z,11.50
2022-11-16T01:45:18.278Z,11.70
2022-11-16T01:47:45.303Z,11.50
2022-11-16T01:50:17.234Z,11.40
2022-11-16T01:52:49.702Z,11.20
2022-11-16T01:55:17.161Z,11.50
2022-11-16T01:57:47.252Z,11.60
2022-11-16T02:00:14.870Z,11.50
2022-11-16T02:02:42.185Z,11.50
2022-11-16T02:05:11.031Z,11.40
2022-11-16T02:08:23.745Z,11.20
2022-11-16T02:11:03.016Z,10.90
2022-11-16T02:13:45.757Z,11.10
2022-11-16T02:16:38.085Z,11.30
2022-11-16T02:19:07.662Z,11.10
2022-11-16T02:21:45.112Z,11.00
2022-11-16T02:24:21.038Z,10.90
2022-11-16T02:26:56.998Z,11.00
2022-11-16T02:29:56.192Z,10.90
2022-11-16T02:32:26.635Z,11.00
2022-11-16T02:35:04.521Z,11.10
2022-11-16T02:37:39.724Z,11.00
2022-11-16T02:40:11.020Z,11.00
2022-11-16T02:42:54.762Z,11.00
2022-11-16T02:45:25.057Z,11.00
2022-11-16T02:47:54.587Z,11.00
2022-11-16T02:50:23.375Z,10.90
2022-11-16T02:52:50.394Z,10.80
2022-11-16T02:55:17.181Z,10.90
2022-11-16T02:57:59.179Z,10.80
2022-11-16T03:00:37.916Z,10.80
2022-11-16T03:03:25.631Z,10.80
2022-11-16T03:06:02.776Z,10.80
2022-11-16T03:08:38.236Z,10.80
2022-11-16T03:11:31.515Z,10.80
2022-11-16T03:14:06.628Z,10.80
2022-11-16T03:16:40.876Z,10.80
2022-11-16T03:19:12.692Z,10.80
2022-11-16T03:21:49.774Z,10.70
2022-11-16T03:24:16.728Z,10.70
2022-11-16T03:27:06.140Z,10.70
2022-11-16T03:30:02.350Z,10.90
2022-11-16T03:32:42.798Z,10.90
2022-11-16T03:35:19.488Z,10.80
2022-11-16T03:37:48.328Z,11.00
2022-11-16T03:40:17.056Z,10.80
2022-11-16T03:42:44.910Z,10.70
2022-11-16T03:45:13.478Z,10.70
2022-11-16T03:47:41.889Z,10.70
2022-11-16T03:50:09.855Z,10.40
2022-11-16T03:52:36.671Z,10.40
2022-11-16T03:55:04.547Z,10.50
2022-11-16T03:57:31.326Z,10.50
2022-11-16T03:59:58.101Z,10.30
2022-11-16T04:02:24.919Z,10.20
2022-11-16T04:05:10.143Z,10.20
2022-11-16T04:07:55.522Z,10.30
2022-11-16T04:10:41.066Z,10.20
2022-11-16T04:13:30.765Z,10.10
2022-11-16T04:16:16.317Z,10.10
2022-11-16T04:19:01.769Z,10.30
2022-11-16T04:21:52.911Z,10.00
2022-11-16T04:24:23.766Z,10.00
2022-11-16T04:27:15.477Z,9.90
2022-11-16T04:29:42.579Z,9.90
2022-11-16T04:32:28.667Z,9.80
2022-11-16T04:35:34.200Z,9.80
2022-11-16T04:38:01.099Z,9.70
2022-11-16T04:40:29.574Z,9.80
2022-11-16T04:43:00.575Z,9.90
2022-11-16T04:45:46.475Z,10.00
2022-11-16T04:48:14.769Z,9.90
2022-11-16T04:50:42.146Z,9.90
2022-11-16T04:53:09.447Z,9.80
2022-11-16T04:55:36.467Z,9.70
2022-11-16T04:58:03.708Z,9.60
2022-11-16T05:00:30.715Z,9.60
2022-11-16T05:03:01.223Z,9.70
2022-11-16T05:05:28.728Z,9.60
2022-11-16T05:07:55.823Z,9.50
2022-11-16T05:10:22.734Z,9.60
2022-11-16T05:12:49.601Z,9.80
2022-11-16T05:15:17.696Z,9.60
2022-11-16T05:17:44.523Z,9.40
2022-11-16T05:20:30.157Z,9.40
2022-11-16T05:22:58.417Z,9.60
2022-11-16T05:25:25.586Z,9.60
2022-11-16T05:27:52.355Z,9.60
2022-11-16T05:30:19.159Z,9.40
2022-11-16T05:32:46.002Z,9.50
2022-11-16T05:35:12.763Z,9.70
2022-11-16T05:37:40.071Z,9.60
2022-11-16T05:40:07.552Z,9.40
2022-11-16T05:42:34.523Z,9.40
2022-11-16T05:45:01.399Z,9.20
2022-11-16T05:47:28.224Z,9.40
2022-11-16T05:49:55.020Z,9.20
2022-11-16T05:52:21.748Z,9.10
2022-11-16T05:54:48.485Z,9.20
2022-11-16T05:57:15.506Z,9.40
2022-11-16T05:59:42.649Z,9.30
2022-11-16T06:02:09.365Z,9.20
2022-11-16T06:04:36.105Z,9.10
2022-11-16T06:07:02.913Z,9.00
2022-11-16T06:09:29.894Z,8.90
2022-11-16T06:11:56.628Z,9.10
2022-11-16T06:14:23.470Z,9.20
2022-11-16T06:16:50.524Z,9.10
2022-11-16T06:19:17.288Z,9.10
2022-11-16T06:21:44.034Z,9.10
2022-11-16T06:24:10.969Z,9.20
2022-11-16T06:26:37.858Z,9.00
2022-11-16T06:29:04.997Z,9.10
2022-11-16T06:31:31.798Z,9.00
2022-11-16T06:33:58.732Z,9.00
2022-11-16T06:36:25.535Z,9.00
2022-11-16T06:38:52.515Z,9.00
2022-11-16T06:41:19.269Z,9.10
2022-11-16T06:43:46.039Z,8.90
2022-11-16T06:46:12.798Z,8.80
2022-11-16T06:48:39.673Z,9.00
2022-11-16T06:51:06.434Z,9.10
2022-11-16T06:53:33.222Z,9.00
2022-11-16T06:56:04.750Z,8.90
2022-11-16T06:58:32.766Z,9.00
2022-11-16T07:01:11.164Z,8.90
2022-11-16T07:03:38.253Z,8.90
2022-11-16T07:06:12.593Z,9.00
2022-11-16T07:08:39.818Z,9.10
2022-11-16T07:11:08.109Z,9.00
2022-11-16T07:13:36.345Z,8.90
2022-11-16T07:16:05.167Z,8.90
2022-11-16T07:18:40.490Z,8.90
2022-11-16T07:21:12.528Z,9.00
2022-11-16T07:23:40.030Z,9.10
2022-11-16T07:26:08.409Z,9.10
2022-11-16T07:28:35.898Z,9.20
2022-11-16T13:10:43.068Z,10.90
2022-11-16T13:13:41.448Z,12.00
2022-11-16T13:16:09.661Z,12.00
2022-11-16T13:18:41.424Z,11.70
2022-11-16T13:21:17.954Z,11.80
2022-11-16T13:24:13.521Z,11.90
2022-11-16T13:27:13.956Z,11.70
2022-11-16T13:29:50.419Z,11.80
2022-11-16T13:32:31.996Z,11.80
2022-11-16T13:35:00.142Z,11.80
2022-11-16T13:37:38.798Z,11.90
2022-11-16T13:40:05.546Z,11.90
2022-11-16T13:42:33.409Z,11.80
2022-11-16T13:45:18.251Z,11.70
2022-11-16T13:47:56.648Z,11.90
2022-11-16T13:50:34.513Z,11.90
2022-11-16T13:56:09.716Z,11.80
2022-11-16T13:58:43.326Z,11.80
2022-11-16T14:01:17.015Z,11.90
2022-11-16T14:03:51.412Z,12.00
2022-11-16T14:06:24.267Z,12.00
2022-11-16T14:08:58.111Z,11.70
2022-11-16T14:11:29.906Z,11.60
2022-11-16T14:13:57.314Z,11.80
2022-11-16T14:16:24.688Z,11.70
2022-11-16T14:19:00.567Z,11.80
2022-11-16T14:21:51.785Z,11.80
2022-11-16T14:24:43.197Z,11.70
2022-11-16T14:27:45.865Z,11.90
2022-11-16T14:30:22.935Z,11.90
2022-11-16T14:32:52.434Z,11.80
2022-11-16T14:35:39.761Z,11.70
2022-11-16T14:38:27.985Z,11.80
2022-11-16T14:40:59.737Z,11.80
2022-11-16T14:43:41.491Z,11.70
2022-11-16T14:46:23.304Z,11.70
2022-11-16T14:48:50.794Z,11.60
2022-11-16T14:51:31.876Z,11.50
2022-11-16T14:54:05.330Z,11.60
2022-11-16T14:56:32.138Z,11.70
2022-11-16T14:59:01.619Z,11.50
2022-11-16T15:01:38.631Z,11.40
2022-11-16T15:04:09.658Z,11.50
2022-11-16T15:06:50.119Z,11.50
2022-11-16T15:09:49.448Z,11.70
2022-11-16T15:12:40.957Z,11.70
2022-11-16T15:15:13.270Z,11.60
2022-11-16T15:17:43.206Z,11.60
2022-11-16T15:20:22.184Z,11.60
2022-11-16T15:22:53.299Z,11.50
2022-11-16T15:25:42.874Z,11.70
2022-11-16T15:28:18.272Z,11.50
2022-11-16T15:30:56.751Z,11.50
2022-11-16T15:33:33.830Z,11.60
2022-11-16T15:36:00.738Z,11.50
2022-11-16T15:38:28.632Z,11.30
2022-11-16T15:40:58.822Z,11.40
2022-11-16T15:43:29.761Z,11.50
2022-11-16T15:45:57.150Z,11.50
2022-11-16T15:48:25.354Z,11.30
2022-11-16T15:51:17.318Z,11.40
2022-11-16T15:53:46.489Z,11.00
2022-11-16T15:56:24.850Z,10.90
2022-11-16T15:58:57.327Z,10.80
2022-11-16T16:01:25.769Z,10.90
2022-11-16T16:04:01.840Z,10.90
2022-11-16T16:06:55.241Z,11.00
2022-11-16T16:10:11.419Z,11.00
2022-11-16T16:12:49.449Z,11.00
2022-11-16T16:15:36.865Z,10.80
2022-11-16T16:18:12.196Z,10.80
2022-11-16T16:20:39.070Z,10.80
2022-11-16T16:23:18.125Z,10.80
2022-11-16T16:25:50.143Z,10.70
2022-11-16T16:28:17.382Z,10.60
2022-11-16T16:30:44.251Z,10.60
2022-11-16T16:33:19.007Z,10.60
2022-11-16T16:35:49.733Z,10.50
2022-11-16T16:38:16.677Z,10.50
2022-11-16T16:40:43.439Z,10.60
2022-11-16T16:43:10.416Z,10.80
2022-11-16T16:45:41.362Z,10.70
2022-11-16T16:48:14.285Z,10.80
2022-11-16T16:50:41.081Z,10.60
2022-11-16T16:53:14.555Z,10.70
2022-11-16T16:55:42.687Z,10.70
2022-11-16T16:58:14.155Z,10.60
2022-11-16T17:00:41.991Z,10.80
2022-11-16T17:03:08.969Z,10.80
2022-11-16T17:05:35.765Z,10.80
2022-11-16T17:08:02.508Z,10.70
2022-11-16T17:10:29.261Z,10.80
2022-11-16T17:12:57.232Z,10.70
2022-11-16T17:15:24.501Z,10.60
2022-11-16T17:17:51.436Z,10.50
2022-11-16T17:20:18.186Z,10.60
2022-11-16T17:22:46.005Z,10.70
2022-11-16T17:25:13.271Z,10.60
2022-11-16T17:27:40.101Z,10.50
2022-11-16T17:30:07.485Z,10.60
2022-11-16T17:32:34.215Z,10.60
2022-11-16T17:35:00.946Z,10.60
2022-11-16T17:37:27.660Z,10.50
2022-11-16T17:39:54.403Z,10.50
2022-11-16T17:42:21.495Z,10.50
2022-11-16T17:44:48.411Z,10.60
2022-11-16T17:47:15.215Z,10.60
2022-11-16T17:49:42.182Z,10.50
2022-11-16T17:52:08.901Z,10.50
2022-11-16T17:54:35.807Z,10.70
2022-11-16T17:57:02.579Z,10.60
2022-11-16T17:59:30.093Z,10.80
2022-11-16T18:01:58.049Z,10.70
2022-11-16T18:04:25.433Z,10.70
2022-11-16T18:06:52.491Z,10.60
2022-11-16T18:09:19.709Z,10.70
2022-11-16T18:11:46.643Z,10.70
2022-11-16T18:14:13.366Z,10.60
2022-11-16T18:16:43.507Z,10.60
2022-11-16T18:19:16.693Z,10.60
2022-11-16T18:21:44.051Z,10.50
2022-11-16T18:24:11.832Z,10.60
2022-11-16T18:26:40.488Z,10.50
2022-11-16T18:29:12.383Z,10.50
2022-11-16T18:31:39.448Z,10.50
2022-11-16T18:34:06.291Z,10.40
2022-11-16T18:36:33.120Z,10.30
2022-11-16T18:39:00.631Z,10.30
2022-11-16T18:41:29.735Z,10.30
2022-11-16T18:44:01.412Z,10.30
2022-11-16T18:46:32.772Z,10.40
2022-11-16T18:48:59.712Z,10.50
2022-11-16T18:51:27.814Z,10.50
2022-11-16T18:53:55.248Z,10.40
2022-11-16T18:56:22.860Z,10.40
2022-11-16T18:58:51.436Z,10.50
2022-11-16T19:01:22.151Z,10.60
2022-11-16T19:03:49.513Z,10.60
2022-11-16T19:06:17.870Z,10.70
2022-11-16T19:08:51.819Z,10.60
2022-11-16T19:11:20.877Z,10.70
2022-11-16T19:13:53.581Z,10.70
2022-11-16T19:16:20.578Z,10.60
2022-11-16T19:18:47.717Z,10.60
2022-11-16T19:21:16.049Z,10.70
2022-11-16T19:23:47.122Z,10.70
2022-11-16T19:26:16.100Z,10.60
2022-11-16T19:28:45.252Z,10.70
2022-11-16T19:31:14.674Z,10.60
2022-11-16T19:33:41.880Z,10.50
2022-11-16T19:36:10.938Z,10.50
2022-11-16T19:38:38.151Z,10.50
2022-11-16T19:41:05.636Z,10.50
2022-11-16T19:43:33.219Z,10.40
2022-11-16T19:46:05.390Z,10.50
2022-11-16T19:48:33.066Z,10.60
2022-11-16T19:51:08.613Z,10.60
2022-11-16T19:53:36.332Z,10.50
2022-11-16T19:56:04.404Z,10.40
2022-11-16T19:58:32.105Z,10.30
2022-11-16T20:01:04.075Z,10.50
2022-11-16T20:03:31.369Z,10.50
2022-11-16T20:06:09.402Z,10.40
2022-11-16T20:08:36.891Z,10.60
2022-11-16T20:11:15.194Z,10.50
2022-11-16T20:13:42.666Z,10.50
2022-11-16T20:16:11.523Z,10.50
2022-11-16T20:18:39.237Z,10.60
2022-11-16T20:21:07.034Z,10.50
2022-11-16T20:23:35.015Z,10.50
2022-11-16T20:26:09.431Z,10.40
2022-11-16T20:28:38.070Z,10.60
2022-11-16T20:31:08.718Z,10.50
2022-11-16T20:33:35.808Z,10.40
2022-11-16T20:36:09.142Z,10.50
2022-11-16T20:38:37.137Z,10.50
2022-11-16T20:41:14.989Z,10.50
2022-11-16T20:43:43.215Z,10.50
2022-11-16T20:46:12.186Z,10.60
2022-11-16T20:48:40.621Z,10.50
2022-11-16T20:51:08.875Z,10.50
2022-11-16T20:53:36.679Z,10.50
2022-11-16T20:56:05.195Z,10.50
2022-11-16T20:58:32.664Z,10.40
2022-11-16T21:01:01.090Z,10.40
2022-11-16T21:03:28.313Z,10.40
2022-11-16T21:05:55.757Z,10.50
2022-11-16T21:08:23.846Z,10.50
2022-11-16T21:10:50.671Z,10.60
2022-11-16T21:13:38.044Z,10.40
2022-11-16T21:16:08.397Z,10.30
2022-11-16T21:18:35.262Z,10.30
2022-11-16T21:21:13.299Z,10.40
2022-11-16T21:23:51.738Z,10.40
2022-11-16T21:26:21.362Z,10.40
2022-11-16T21:28:48.345Z,10.30
2022-11-16T21:31:17.830Z,10.30
2022-11-16T21:33:45.815Z,10.40
2022-11-16T21:36:15.112Z,10.40
2022-11-16T21:38:42.485Z,10.40
2022-11-16T21:41:13.735Z,10.40
2022-11-16T21:43:40.975Z,10.40
2022-11-16T21:46:13.218Z,10.40
2022-11-16T21:48:40.030Z,10.40
2022-11-16T21:51:11.389Z,10.50
2022-11-16T21:53:38.996Z,10.30
2022-11-16T21:56:07.464Z,10.30
2022-11-16T21:58:34.405Z,10.40
2022-11-16T22:01:02.313Z,10.40
2022-11-16T22:03:30.648Z,10.40
2022-11-16T22:06:20.829Z,10.40
2022-11-16T22:08:48.257Z,10.50
2022-11-16T22:11:16.254Z,10.60
2022-11-16T22:13:43.724Z,10.50
2022-11-16T22:16:12.599Z,10.60
2022-11-16T22:18:39.741Z,10.60
2022-11-16T22:21:06.706Z,10.50
2022-11-16T22:23:34.541Z,10.60
2022-11-16T22:26:12.690Z,10.60
2022-11-16T22:28:39.554Z,10.50
2022-11-16T22:31:14.679Z,10.50
2022-11-16T22:33:41.949Z,10.50
2022-11-16T22:36:11.830Z,10.60
2022-11-16T22:38:38.726Z,10.60
2022-11-16T22:41:05.916Z,10.60
2022-11-16T22:43:33.291Z,10.60
2022-11-16T22:46:05.566Z,10.60
2022-11-16T22:48:35.357Z,10.60
2022-11-16T22:51:18.236Z,10.60
2022-11-16T22:53:45.064Z,10.60
2022-11-16T22:56:12.156Z,10.50
2022-11-16T22:58:40.341Z,10.50
2022-11-16T23:01:09.259Z,10.50
2022-11-16T23:03:36.776Z,10.50
2022-11-16T23:06:04.897Z,10.50
2022-11-16T23:08:32.461Z,10.50
2022-11-16T23:11:25.972Z,10.50
2022-11-16T23:14:12.697Z,10.60
2022-11-16T23:16:40.304Z,10.60
2022-11-16T23:19:26.988Z,10.70
2022-11-16T23:22:13.093Z,10.60
2022-11-16T23:24:58.657Z,10.60
2022-11-16T23:27:29.579Z,10.70
2022-11-16T23:29:57.975Z,10.70
2022-11-16T23:32:24.688Z,10.60
2022-11-16T23:34:51.480Z,10.60
2022-11-16T23:37:18.285Z,10.70
2022-11-16T23:39:45.049Z,10.80
2022-11-16T23:42:30.268Z,10.80
2022-11-16T23:44:57.089Z,10.80
2022-11-16T23:47:24.256Z,10.80
2022-11-16T23:49:51.031Z,10.80
2022-11-16T23:52:17.864Z,10.90
2022-11-16T23:54:44.646Z,10.90
2022-11-16T23:57:12.032Z,10.90
2022-11-16T23:59:38.832Z,10.90
